KLKU

Louisa County / Freeman Field Airport

Louisa, Virginia, USA
METAR KLKU 231055Z AUTO 00000KT 10SM CLR 19/18 A3001 RMK AO2 T01900185
Observed Flight Rules
May-23 @ 10:55 UTC (21 minutes ago) Visual Flight Rules
Visibility Clouds
10 miles
  • Clear skies
Temperatures Readings
Current 19°C / 66°F
Dewpoint 19°C / 66°F
Humidity 100%
Altimeter 30.01" Hg
Pressure 1016 hPa
Elevation 150
METAR KLKU 231055Z AUTO 00000KT 10SM CLR 19/18 A3001 RMK AO2 T01900185
Observed Flight Rules
May-23 @ 10:55 UTC
(21 minutes ago)
VFR
Clouds
  • Clear skies
Temperature Dewpoint
19°C / 66°F 19°C / 66°F
Humidity Altimeter Pressure
100% 30.01" Hg 1016 hPa